Time;durP1;ratioP1;P1;durP2;ratioP2;P2;SDS_P1;SDS_P2;PMS_P1;PMS_P2;Temp;Humidity;BMP_temperature;BMP_pressure;BME280_temperature;BME280_humidity;BME280_pressure;Samples;Min_cycle;Max_cycle;Signal;HPM_P1;HPM_P2
2022/07/05 00:00:06;;;;;;;3.20;1.70;;;;;;;16.44;66.71;100404.91;4984241;28;20185;-65
2022/07/05 00:02:31;;;;;;;2.43;1.70;;;;;;;16.44;66.13;100401.50;5009579;28;20241;-65
2022/07/05 00:04:56;;;;;;;13.43;1.90;;;;;;;16.46;66.26;100410.81;4993422;28;20267;-64
2022/07/05 00:07:22;;;;;;;2.80;1.90;;;;;;;16.39;66.58;100409.63;5007180;28;20651;-64
2022/07/05 00:09:50;;;;;;;4.50;1.50;;;;;;;16.42;65.70;100417.19;4993962;28;20258;-64
2022/07/05 00:12:17;;;;;;;2.07;1.53;;;;;;;16.43;65.89;100407.63;4984560;28;20226;-67
2022/07/05 00:14:43;;;;;;;6.87;1.77;;;;;;;16.38;65.77;100414.94;4993459;28;20230;-64
2022/07/05 00:17:10;;;;;;;3.80;1.80;;;;;;;16.45;65.05;100413.53;4993273;28;20187;-65
2022/07/05 00:19:35;;;;;;;2.47;2.17;;;;;;;16.41;64.74;100412.94;4992248;28;20709;-65
2022/07/05 00:22:00;;;;;;;3.63;1.90;;;;;;;16.41;64.57;100412.94;4999295;28;20223;-64
2022/07/05 00:24:26;;;;;;;2.20;1.63;;;;;;;16.46;64.09;100412.59;4994341;28;20180;-64
2022/07/05 00:26:52;;;;;;;2.47;1.80;;;;;;;16.46;64.04;100416.00;4994190;28;20634;-65
2022/07/05 00:29:17;;;;;;;3.60;1.97;;;;;;;16.45;64.13;100419.53;4993815;28;20183;-63
2022/07/05 00:31:42;;;;;;;2.20;1.77;;;;;;;16.36;65.38;100420.25;4996166;28;20218;-63
2022/07/05 00:34:08;;;;;;;2.80;1.60;;;;;;;16.40;64.83;100420.84;4994991;28;20651;-63
2022/07/05 00:36:33;;;;;;;6.10;1.60;;;;;;;16.34;64.94;100413.50;4985787;28;20214;-64
2022/07/05 00:38:58;;;;;;;3.20;1.60;;;;;;;16.30;65.05;100407.72;4991507;28;20282;-64
2022/07/05 00:41:24;;;;;;;1.57;1.23;;;;;;;16.37;65.01;100410.66;5001606;28;20246;-67
2022/07/05 00:44:05;;;;;;;4.23;1.60;;;;;;;16.37;65.33;100414.13;4998450;28;20237;-64
2022/07/05 00:46:31;;;;;;;2.93;1.90;;;;;;;16.41;65.30;100414.69;4992310;28;20217;-64
2022/07/05 00:48:58;;;;;;;3.13;1.50;;;;;;;16.32;66.12;100421.38;4992179;28;20233;-64
2022/07/05 00:51:24;;;;;;;1.97;1.53;;;;;;;16.27;66.73;100419.16;4985586;28;20231;-63
2022/07/05 00:53:50;;;;;;;3.13;1.70;;;;;;;16.22;67.09;100416.03;4994767;28;20171;-63
2022/07/05 00:56:17;;;;;;;2.40;1.70;;;;;;;16.17;67.48;100418.16;4993461;28;20207;-63
2022/07/05 00:58:43;;;;;;;3.13;2.07;;;;;;;16.12;68.72;100417.66;4991831;28;20591;-63
2022/07/05 01:01:09;;;;;;;4.33;1.90;;;;;;;16.12;69.18;100415.06;4991972;28;20258;-63
2022/07/05 01:03:35;;;;;;;2.53;1.80;;;;;;;16.03;69.55;100424.34;4991983;28;20286;-65
2022/07/05 01:06:06;;;;;;;1.97;1.50;;;;;;;15.96;69.04;100415.34;5010950;28;20274;-64
2022/07/05 01:08:36;;;;;;;4.43;1.70;;;;;;;15.90;69.98;100413.19;4992017;28;20179;-64
2022/07/05 01:11:02;;;;;;;3.40;1.90;;;;;;;15.87;70.37;100411.66;4983979;28;20230;-64
2022/07/05 01:13:27;;;;;;;3.57;2.00;;;;;;;15.77;70.82;100418.41;5001221;28;20193;-64
2022/07/05 01:15:54;;;;;;;4.87;1.90;;;;;;;15.68;71.44;100411.28;4993380;28;20180;-64
2022/07/05 01:18:20;;;;;;;2.13;1.73;;;;;;;15.64;71.74;100419.28;4992163;28;20713;-65
2022/07/05 01:20:48;;;;;;;4.90;1.90;;;;;;;15.65;72.13;100417.50;4984152;28;20233;-64
2022/07/05 01:23:13;;;;;;;3.97;1.90;;;;;;;15.67;72.89;100407.06;4991680;28;20172;-63
2022/07/05 01:25:38;;;;;;;4.83;1.80;;;;;;;15.58;72.94;100409.34;4992831;28;20238;-63
2022/07/05 01:28:04;;;;;;;4.50;2.00;;;;;;;15.52;72.87;100408.94;4992799;28;20322;-66
2022/07/05 01:30:33;;;;;;;4.83;1.50;;;;;;;15.46;73.76;100410.22;4986252;28;20230;-64
2022/07/05 01:32:59;;;;;;;3.07;1.50;;;;;;;15.32;73.82;100417.19;4985318;28;20191;-66
2022/07/05 01:35:24;;;;;;;1.70;1.50;;;;;;;15.08;75.25;100411.94;4988413;28;20203;-66
2022/07/05 01:37:51;;;;;;;2.13;1.50;;;;;;;15.15;74.72;100414.94;4992358;28;20198;-65
2022/07/05 01:40:17;;;;;;;3.27;1.33;;;;;;;15.25;74.24;100409.94;4983041;28;20636;-64
2022/07/05 01:42:43;;;;;;;2.77;1.60;;;;;;;15.32;73.55;100408.59;5005843;28;20531;-65
2022/07/05 01:45:09;;;;;;;1.80;1.60;;;;;;;15.33;73.66;100407.63;4992636;28;20206;-64
2022/07/05 01:47:45;;;;;;;3.97;1.50;;;;;;;15.30;74.45;100400.09;4992406;28;20301;-64
2022/07/05 01:50:16;;;;;;;2.07;1.83;;;;;;;15.23;75.05;100404.88;4981916;28;20337;-64
2022/07/05 01:52:46;;;;;;;6.33;1.53;;;;;;;15.17;75.44;100402.72;5006476;28;20207;-65
2022/07/05 01:55:11;;;;;;;3.10;1.50;;;;;;;15.29;74.40;100406.19;5001921;28;20266;-64
2022/07/05 01:57:36;;;;;;;2.27;1.53;;;;;;;15.27;73.91;100410.66;4992503;28;20269;-64
2022/07/05 02:00:02;;;;;;;1.80;1.30;;;;;;;15.33;73.72;100398.13;4992127;28;20179;-63
2022/07/05 02:02:27;;;;;;;2.97;1.73;;;;;;;15.46;72.23;100392.06;4981317;28;20204;-63
2022/07/05 02:04:53;;;;;;;4.07;1.77;;;;;;;15.51;72.04;100399.53;4992036;28;20917;-63
2022/07/05 02:07:18;;;;;;;1.80;1.30;;;;;;;15.52;71.69;100404.59;4994863;28;20207;-63
2022/07/05 02:09:43;;;;;;;2.70;1.63;;;;;;;15.58;71.75;100396.38;4991958;28;20187;-64
2022/07/05 02:12:09;;;;;;;1.97;1.40;;;;;;;15.57;71.54;100399.09;4997279;28;20314;-66
2022/07/05 02:14:34;;;;;;;7.00;1.70;;;;;;;15.52;71.97;100404.59;4992354;28;20229;-65
2022/07/05 02:17:00;;;;;;;4.93;1.70;;;;;;;15.47;72.27;100404.91;4992392;28;20620;-64
2022/07/05 02:19:25;;;;;;;2.63;1.50;;;;;;;15.36;74.42;100398.84;4992037;28;20199;-65
2022/07/05 02:21:50;;;;;;;2.43;1.47;;;;;;;15.32;74.99;100401.63;4995610;28;20222;-64
2022/07/05 02:24:16;;;;;;;2.53;1.70;;;;;;;15.29;75.08;100401.88;4993815;28;20198;-65
2022/07/05 02:26:41;;;;;;;3.33;1.67;;;;;;;15.23;75.39;100396.25;4992300;28;20191;-65
2022/07/05 02:29:06;;;;;;;2.73;1.53;;;;;;;15.06;76.87;100394.81;4991616;28;20180;-67
2022/07/05 02:31:32;;;;;;;2.83;1.60;;;;;;;15.04;77.89;100394.94;4975050;28;20335;-65
2022/07/05 02:33:58;;;;;;;4.53;1.50;;;;;;;15.05;77.65;100400.97;4995845;28;20262;-65
2022/07/05 02:36:23;;;;;;;2.27;1.60;;;;;;;15.11;77.37;100406.53;4993633;28;20200;-64
2022/07/05 02:38:49;;;;;;;2.60;1.77;;;;;;;15.01;77.69;100403.75;4990315;28;20530;-66
2022/07/05 02:41:14;;;;;;;2.53;1.70;;;;;;;15.10;76.93;100407.47;4990982;28;20745;-65
2022/07/05 02:43:40;;;;;;;2.77;1.90;;;;;;;15.09;76.25;100405.00;4997870;28;20229;-65
2022/07/05 02:46:07;;;;;;;5.63;2.50;;;;;;;15.05;76.91;100404.38;4991806;28;20175;-64
2022/07/05 02:48:34;;;;;;;2.43;1.87;;;;;;;14.97;77.37;100406.66;4991698;28;20187;-65
2022/07/05 02:50:59;;;;;;;3.93;2.20;;;;;;;14.98;77.81;100410.91;4988561;28;20334;-65
2022/07/05 02:53:25;;;;;;;2.63;2.10;;;;;;;15.02;77.50;100412.38;4993969;28;20254;-64
2022/07/05 02:55:50;;;;;;;2.83;2.17;;;;;;;15.06;76.88;100408.63;4992264;28;20606;-65
2022/07/05 02:58:16;;;;;;;4.17;2.00;;;;;;;15.01;76.54;100411.53;4994612;28;20194;-64
2022/07/05 03:00:43;;;;;;;2.13;1.83;;;;;;;15.03;75.89;100408.81;4975049;28;20218;-64
2022/07/05 03:03:08;;;;;;;4.50;1.93;;;;;;;15.07;75.37;100410.28;4983066;28;20219;-64
2022/07/05 03:05:34;;;;;;;4.63;2.10;;;;;;;15.04;75.11;100410.47;5015215;28;20206;-66
2022/07/05 03:07:59;;;;;;;2.10;1.90;;;;;;;14.97;74.55;100410.09;5000042;28;20313;-65
2022/07/05 03:10:25;;;;;;;5.33;1.83;;;;;;;14.99;74.69;100417.75;4988087;28;20226;-65
2022/07/05 03:12:50;;;;;;;3.73;1.80;;;;;;;14.99;75.89;100409.97;5007978;28;20597;-64
2022/07/05 03:15:16;;;;;;;3.33;2.10;;;;;;;14.98;76.10;100416.94;4987165;28;20193;-63
2022/07/05 03:17:41;;;;;;;2.60;1.67;;;;;;;14.92;77.26;100421.69;5008756;28;20175;-65
2022/07/05 03:20:07;;;;;;;2.90;1.87;;;;;;;14.87;78.18;100421.16;4985446;28;20699;-63
2022/07/05 03:22:32;;;;;;;3.70;1.80;;;;;;;14.92;77.43;100424.28;4994231;28;20180;-64
2022/07/05 03:24:58;;;;;;;2.40;1.83;;;;;;;14.92;77.10;100419.09;4995343;28;20227;-63
2022/07/05 03:27:23;;;;;;;7.30;1.70;;;;;;;14.84;76.95;100423.03;4992559;28;20204;-63
2022/07/05 03:29:48;;;;;;;1.80;1.70;;;;;;;14.85;77.36;100429.88;4982132;28;20532;-64
2022/07/05 03:32:13;;;;;;;2.37;1.73;;;;;;;14.84;77.60;100427.38;4977299;28;20229;-65
2022/07/05 03:34:39;;;;;;;3.50;2.20;;;;;;;14.86;77.70;100422.94;4989263;28;20186;-66
2022/07/05 03:37:04;;;;;;;9.90;2.57;;;;;;;14.83;77.74;100428.31;4999520;28;20207;-65
2022/07/05 03:39:29;;;;;;;2.97;1.83;;;;;;;14.87;77.54;100427.16;4994677;28;20287;-64
2022/07/05 03:41:54;;;;;;;4.43;1.90;;;;;;;14.86;77.60;100428.13;4999261;28;20245;-64
2022/07/05 03:44:20;;;;;;;5.43;1.83;;;;;;;14.91;78.26;100430.38;4995833;28;20222;-65
2022/07/05 03:46:45;;;;;;;4.13;2.40;;;;;;;14.91;78.53;100439.00;4994998;28;20203;-64
2022/07/05 03:49:10;;;;;;;3.47;1.83;;;;;;;14.90;78.54;100428.75;4994315;28;20222;-64
2022/07/05 03:51:35;;;;;;;3.17;1.90;;;;;;;14.92;78.87;100432.03;4996505;28;20222;-63
2022/07/05 03:54:01;;;;;;;3.00;1.70;;;;;;;14.93;78.71;100434.53;5004424;28;20229;-63
2022/07/05 03:56:26;;;;;;;4.43;1.70;;;;;;;15.05;78.40;100427.69;4995127;28;20274;-64
2022/07/05 03:58:51;;;;;;;3.93;2.00;;;;;;;15.13;78.01;100428.00;4994322;28;20245;-64
2022/07/05 04:01:17;;;;;;;2.50;1.77;;;;;;;15.18;77.66;100430.25;4994253;28;20595;-63
2022/07/05 04:03:42;;;;;;;2.53;1.63;;;;;;;15.27;77.14;100433.97;4999748;28;20192;-63
2022/07/05 04:06:09;;;;;;;4.93;1.70;;;;;;;15.33;76.65;100438.75;5000377;28;20232;-64
2022/07/05 04:08:35;;;;;;;2.13;1.63;;;;;;;15.36;77.37;100438.53;4989485;28;20192;-68
2022/07/05 04:11:00;;;;;;;3.90;1.60;;;;;;;15.55;76.09;100447.63;4987499;28;20250;-59
2022/07/05 04:13:26;;;;;;;2.50;1.53;;;;;;;15.79;74.09;100445.09;4987108;28;20580;-68
2022/07/05 04:15:53;;;;;;;4.13;1.93;;;;;;;15.98;73.23;100439.44;4974858;28;20292;-59
2022/07/05 04:18:18;;;;;;;2.07;1.70;;;;;;;16.13;71.65;100447.88;4979525;28;20230;-57
2022/07/05 04:20:43;;;;;;;3.80;1.90;;;;;;;16.10;72.71;100448.94;4977889;28;20269;-58
2022/07/05 04:23:08;;;;;;;4.33;1.63;;;;;;;16.22;70.90;100444.59;5004270;28;20670;-58
2022/07/05 04:25:34;;;;;;;2.50;1.37;;;;;;;16.41;70.45;100448.44;4987953;28;20235;-58
2022/07/05 04:27:59;;;;;;;3.07;1.60;;;;;;;16.30;71.78;100455.25;4994228;28;20218;-60
2022/07/05 04:30:25;;;;;;;3.03;1.63;;;;;;;16.50;70.57;100449.56;4982028;28;20646;-60
2022/07/05 04:32:51;;;;;;;3.37;1.47;;;;;;;16.58;69.73;100452.38;4984928;28;20175;-57
2022/07/05 04:35:17;;;;;;;2.40;1.50;;;;;;;16.45;69.99;100452.47;5002279;28;20643;-58
2022/07/05 04:37:43;;;;;;;3.10;1.40;;;;;;;16.59;70.28;100448.84;4993660;28;20353;-57
2022/07/05 04:40:11;;;;;;;3.07;1.43;;;;;;;16.70;70.05;100464.47;4982764;28;20600;-58
2022/07/05 04:42:37;;;;;;;2.60;1.50;;;;;;;16.78;69.41;100462.13;5007872;28;20187;-58
2022/07/05 04:45:03;;;;;;;3.13;1.37;;;;;;;16.74;70.31;100455.50;4993849;28;20655;-59
2022/07/05 04:47:28;;;;;;;3.63;1.53;;;;;;;16.74;70.82;100455.50;4992000;28;20198;-59
2022/07/05 04:49:56;;;;;;;8.20;2.07;;;;;;;16.94;68.49;100458.41;4993363;28;20179;-64
2022/07/05 04:52:22;;;;;;;3.47;1.60;;;;;;;17.18;67.71;100455.72;4985677;28;20237;-59
2022/07/05 04:54:47;;;;;;;2.40;1.30;;;;;;;17.21;66.98;100454.66;4999723;28;20183;-57
2022/07/05 04:57:12;;;;;;;1.73;1.30;;;;;;;17.34;67.11;100463.16;4993550;28;20180;-58
2022/07/05 04:59:38;;;;;;;3.23;1.37;;;;;;;17.44;66.42;100460.69;4992987;28;20193;-58
2022/07/05 05:02:03;;;;;;;2.57;1.50;;;;;;;17.23;65.32;100461.38;4998796;28;20978;-58
2022/07/05 05:04:29;;;;;;;3.57;1.20;;;;;;;17.53;64.44;100459.94;4993679;28;20183;-57
2022/07/05 05:06:54;;;;;;;2.63;1.53;;;;;;;17.72;63.55;100466.31;5000234;28;20207;-60
2022/07/05 05:09:20;;;;;;;2.83;1.40;;;;;;;17.86;62.21;100465.19;4992857;28;20194;-59
2022/07/05 05:11:46;;;;;;;2.53;1.40;;;;;;;17.91;61.88;100471.69;4996347;28;20594;-58
2022/07/05 05:14:11;;;;;;;4.87;1.40;;;;;;;18.19;61.81;100473.91;4995370;28;20190;-58
2022/07/05 05:16:36;;;;;;;4.53;1.70;;;;;;;18.32;62.70;100471.13;4993117;28;20168;-58
2022/07/05 05:19:02;;;;;;;3.77;1.40;;;;;;;18.41;61.70;100472.97;4992490;28;20605;-59
2022/07/05 05:21:27;;;;;;;3.10;1.63;;;;;;;18.45;62.37;100471.78;4993255;28;20226;-59
2022/07/05 05:23:52;;;;;;;1.73;1.40;;;;;;;18.58;60.97;100474.22;4981965;28;20191;-58
2022/07/05 05:26:18;;;;;;;1.93;1.20;;;;;;;19.07;61.71;100473.69;4991538;28;20247;-58
2022/07/05 05:28:43;;;;;;;4.03;1.43;;;;;;;19.38;59.53;100479.72;4992777;28;20268;-58
2022/07/05 05:31:09;;;;;;;3.60;1.30;;;;;;;19.90;58.80;100482.22;4991310;28;20234;-57
2022/07/05 05:33:34;;;;;;;2.50;1.57;;;;;;;19.98;57.73;100486.75;4988545;28;20515;-60
2022/07/05 05:36:01;;;;;;;3.97;1.53;;;;;;;20.30;55.10;100488.31;4993806;28;20207;-59
2022/07/05 05:38:26;;;;;;;4.20;1.60;;;;;;;20.13;55.48;100493.25;4991340;28;20191;-59
2022/07/05 05:40:52;;;;;;;3.47;1.40;;;;;;;20.07;56.67;100490.34;4984085;28;20285;-59
2022/07/05 05:43:17;;;;;;;1.67;1.20;;;;;;;20.17;57.67;100496.41;5001711;28;20705;-57
2022/07/05 05:45:42;;;;;;;5.47;1.30;;;;;;;20.19;55.63;100491.88;4992580;28;20627;-58
2022/07/05 05:48:08;;;;;;;3.77;1.10;;;;;;;20.53;55.18;100496.69;4992921;28;20216;-57
2022/07/05 05:50:35;;;;;;;4.33;1.60;;;;;;;20.78;54.23;100502.31;4986000;28;20223;-58
2022/07/05 05:53:01;;;;;;;4.10;1.47;;;;;;;21.19;54.07;100492.44;4994825;28;20183;-59
2022/07/05 05:55:28;;;;;;;6.00;1.50;;;;;;;21.62;52.02;100497.22;4993985;28;20658;-60
2022/07/05 05:57:54;;;;;;;4.50;1.97;;;;;;;21.61;50.59;100506.88;4990810;28;20225;-59
2022/07/05 06:00:21;;;;;;;2.53;1.27;;;;;;;21.65;50.29;100504.81;4982426;28;20183;-59
2022/07/05 06:02:49;;;;;;;2.10;1.27;;;;;;;21.58;49.44;100501.94;4991232;28;20171;-59
2022/07/05 06:05:15;;;;;;;4.03;1.47;;;;;;;21.59;48.82;100509.66;4993141;28;20295;-59
2022/07/05 06:07:46;;;;;;;6.20;1.30;;;;;;;21.14;49.47;100514.78;4991950;28;20215;-59
2022/07/05 06:10:15;;;;;;;3.70;1.40;;;;;;;21.13;49.32;100506.09;4981858;28;20182;-58
2022/07/05 06:12:41;;;;;;;2.50;1.30;;;;;;;21.76;47.77;100510.66;5005351;28;20218;-58
2022/07/05 06:15:07;;;;;;;5.20;1.17;;;;;;;22.22;45.67;100509.81;4992204;28;20207;-58
2022/07/05 06:17:39;;;;;;;1.67;1.30;;;;;;;22.52;44.55;100505.97;4990232;28;20269;-57
2022/07/05 06:20:12;;;;;;;2.23;1.00;;;;;;;22.82;43.35;100508.31;4977308;28;20338;-60
2022/07/05 06:22:38;;;;;;;2.83;1.30;;;;;;;23.26;42.02;100517.94;4979032;28;20214;-58
2022/07/05 06:25:04;;;;;;;1.90;1.33;;;;;;;24.37;40.58;100518.78;4990514;28;20235;-58
2022/07/05 06:27:29;;;;;;;5.37;1.63;;;;;;;25.52;37.01;100515.94;4990137;28;20205;-60
2022/07/05 06:29:55;;;;;;;3.20;0.98;;;;;;;26.27;35.78;100524.25;4991310;28;20542;-59
2022/07/05 06:32:20;;;;;;;5.18;1.20;;;;;;;27.41;33.67;100528.63;4996611;28;20241;-59
2022/07/05 06:34:46;;;;;;;1.77;0.95;;;;;;;27.75;32.80;100529.00;4996620;28;20178;-59
2022/07/05 06:37:11;;;;;;;2.75;1.10;;;;;;;29.11;31.16;100534.25;4990522;28;20187;-59
2022/07/05 06:39:37;;;;;;;3.55;1.30;;;;;;;30.00;29.65;100537.06;4989252;28;20558;-60
2022/07/05 06:42:02;;;;;;;1.95;0.90;;;;;;;29.60;28.69;100535.09;4994479;28;20241;-59
2022/07/05 06:44:28;;;;;;;1.55;1.00;;;;;;;28.89;30.04;100533.53;4985545;28;20202;-59
2022/07/05 06:46:53;;;;;;;3.80;1.20;;;;;;;28.92;29.56;100537.59;4988745;28;20203;-59
2022/07/05 06:49:18;;;;;;;2.70;1.08;;;;;;;28.50;29.95;100545.41;4990628;28;20271;-60
2022/07/05 06:51:44;;;;;;;3.13;1.00;;;;;;;28.52;29.95;100535.47;4989274;28;20245;-59
2022/07/05 06:54:09;;;;;;;2.80;1.30;;;;;;;28.70;30.48;100536.84;4986742;28;20215;-59
2022/07/05 06:56:34;;;;;;;3.58;1.30;;;;;;;29.47;29.52;100543.00;4988845;28;20191;-61
2022/07/05 06:58:59;;;;;;;8.50;1.60;;;;;;;30.89;26.88;100537.69;4976190;28;20600;-61
2022/07/05 07:01:25;;;;;;;4.25;1.00;;;;;;;30.43;27.15;100549.94;4961609;28;20269;-61
2022/07/05 07:03:50;;;;;;;4.13;0.93;;;;;;;31.02;26.44;100544.81;4980514;28;20695;-61
2022/07/05 07:06:16;;;;;;;3.05;1.25;;;;;;;31.46;25.65;100544.28;4979550;28;20175;-60
2022/07/05 07:11:26;;;;;;;2.67;1.05;;;;;;;29.99;27.39;100543.38;4986177;28;20364;-59
2022/07/05 07:13:52;;;;;;;4.88;1.40;;;;;;;31.45;26.04;100542.66;4980688;28;20215;-59
2022/07/05 07:16:17;;;;;;;2.30;1.08;;;;;;;31.96;25.17;100555.06;4982856;28;20249;-59
2022/07/05 07:18:42;;;;;;;2.67;1.08;;;;;;;32.51;24.44;100551.00;4988768;28;20191;-59
2022/07/05 07:21:07;;;;;;;4.85;1.10;;;;;;;33.56;22.75;100553.81;4985609;28;20320;-60
2022/07/05 07:23:33;;;;;;;3.95;0.80;;;;;;;33.88;22.74;100564.28;4990762;28;20175;-60
2022/07/05 07:25:58;;;;;;;2.78;1.10;;;;;;;33.93;22.94;100559.09;4990589;28;20250;-60
2022/07/05 07:28:24;;;;;;;3.00;1.20;;;;;;;34.27;21.70;100570.03;4989633;28;20211;-60
2022/07/05 07:30:49;;;;;;;1.42;0.85;;;;;;;33.48;23.01;100560.28;4960352;28;20231;-60
2022/07/05 07:33:14;;;;;;;1.63;1.10;;;;;;;33.72;23.28;100571.84;4983192;28;20226;-63
2022/07/05 07:35:40;;;;;;;2.78;1.25;;;;;;;33.75;22.22;100571.41;4988316;28;20207;-62
2022/07/05 07:38:05;;;;;;;4.40;1.00;;;;;;;33.18;23.56;100571.66;4987964;28;20188;-61
2022/07/05 07:40:30;;;;;;;3.40;1.38;;;;;;;33.76;21.69;100575.69;4966088;28;20249;-61
2022/07/05 07:42:55;;;;;;;4.57;1.15;;;;;;;34.10;20.83;100569.91;4993725;28;20219;-62
2022/07/05 07:45:21;;;;;;;3.80;1.17;;;;;;;35.53;19.72;100565.34;4975357;28;20689;-62
2022/07/05 07:47:46;;;;;;;2.25;0.90;;;;;;;35.17;19.75;100569.97;4982330;28;20208;-60
2022/07/05 07:50:11;;;;;;;2.75;1.30;;;;;;;33.47;22.34;100572.00;4966010;28;20223;-60
2022/07/05 07:52:38;;;;;;;2.58;0.85;;;;;;;33.53;21.03;100573.75;4998833;28;20266;-61
2022/07/05 07:55:04;;;;;;;2.50;0.85;;;;;;;33.78;21.97;100567.47;4987819;28;20227;-60
2022/07/05 07:57:29;;;;;;;1.83;1.10;;;;;;;35.83;19.79;100572.28;4979745;28;20186;-64
2022/07/05 07:59:55;;;;;;;2.17;1.05;;;;;;;34.94;20.41;100576.94;4994421;28;20191;-63
2022/07/05 08:02:22;;;;;;;1.83;1.10;;;;;;;34.87;21.29;100577.09;4999806;28;20238;-62
2022/07/05 08:04:48;;;;;;;3.10;1.10;;;;;;;34.49;20.26;100580.22;4994782;28;20221;-61
2022/07/05 08:07:14;;;;;;;2.85;1.20;;;;;;;35.27;20.88;100564.81;4995387;28;20229;-61
2022/07/05 08:09:39;;;;;;;4.22;1.00;;;;;;;35.74;19.26;100571.88;4993759;28;20203;-62
2022/07/05 08:12:05;;;;;;;2.45;0.85;;;;;;;35.23;19.50;100567.13;4999943;28;20226;-63
2022/07/05 08:14:31;;;;;;;4.30;1.08;;;;;;;36.10;19.45;100569.81;4988010;28;20190;-62
2022/07/05 08:16:57;;;;;;;4.05;1.05;;;;;;;36.40;19.27;100567.91;4990366;28;20233;-63
2022/07/05 08:22:07;;;;;;;3.60;1.17;;;;;;;35.36;19.50;100560.69;4987204;28;20355;-62
2022/07/05 08:24:33;;;;;;;3.63;1.05;;;;;;;36.64;18.51;100557.78;4990376;28;20226;-59
2022/07/05 08:26:58;;;;;;;5.47;1.05;;;;;;;35.08;19.70;100556.16;4988438;28;20200;-61
2022/07/05 08:29:24;;;;;;;7.10;1.00;;;;;;;36.59;19.18;100555.84;4988188;28;20191;-58
2022/07/05 08:31:51;;;;;;;2.08;1.02;;;;;;;35.81;19.01;100553.81;4991732;28;20292;-58
2022/07/05 08:34:18;;;;;;;3.58;1.13;;;;;;;36.60;18.56;100557.47;4984908;28;20282;-61
2022/07/05 08:36:43;;;;;;;2.17;0.95;;;;;;;36.28;19.12;100563.44;4979219;28;20618;-59
2022/07/05 08:39:09;;;;;;;2.00;0.98;;;;;;;35.56;19.15;100554.13;4985076;28;20183;-59
2022/07/05 08:41:38;;;;;;;2.78;0.90;;;;;;;36.71;19.62;100563.78;4988361;28;20227;-60
2022/07/05 08:44:04;;;;;;;2.03;1.02;;;;;;;36.27;18.64;100558.28;4994732;28;20175;-61
2022/07/05 08:46:31;;;;;;;8.48;1.33;;;;;;;37.45;18.43;100559.91;4972905;28;20239;-61
2022/07/05 08:48:59;;;;;;;2.88;1.05;;;;;;;37.36;18.73;100563.28;4976876;28;20188;-61
2022/07/05 08:51:27;;;;;;;1.80;1.13;;;;;;;36.90;18.66;100550.13;4981885;28;20305;-62
2022/07/05 08:53:55;;;;;;;2.90;1.27;;;;;;;36.40;19.04;100566.03;4990226;28;20186;-60
2022/07/05 08:56:21;;;;;;;4.55;0.93;;;;;;;33.98;20.92;100558.41;4997169;28;20195;-60
2022/07/05 08:58:46;;;;;;;3.60;1.10;;;;;;;34.31;21.04;100567.72;4991399;28;20202;-60
2022/07/05 09:01:13;;;;;;;2.75;0.90;;;;;;;36.03;19.14;100566.50;4976502;28;20231;-61
2022/07/05 09:03:44;;;;;;;5.68;1.10;;;;;;;35.59;19.16;100560.88;4972578;28;20180;-59
2022/07/05 09:06:13;;;;;;;7.65;1.10;;;;;;;35.91;18.99;100558.56;4986107;28;20324;-59
2022/07/05 09:08:40;;;;;;;3.72;0.90;;;;;;;36.74;17.57;100563.31;4989192;28;20212;-59
2022/07/05 09:11:07;;;;;;;2.58;1.13;;;;;;;37.91;17.45;100558.75;4971091;28;20270;-59
2022/07/05 09:13:38;;;;;;;1.55;0.90;;;;;;;38.35;16.03;100560.44;4984493;28;20184;-60
2022/07/05 09:16:04;;;;;;;3.88;1.00;;;;;;;38.04;16.47;100562.88;4998257;28;20195;-61
2022/07/05 09:18:43;;;;;;;2.90;1.10;;;;;;;36.91;17.83;100557.13;4985094;28;20204;-61
2022/07/05 09:21:12;;;;;;;4.45;1.48;;;;;;;36.78;17.93;100556.38;4974413;28;20250;-60
2022/07/05 09:23:38;;;;;;;3.03;1.00;;;;;;;37.99;17.90;100557.47;4987001;28;20211;-59
2022/07/05 09:26:03;;;;;;;1.75;0.80;;;;;;;36.06;18.08;100551.81;4973394;28;20227;-60
2022/07/05 09:28:28;;;;;;;2.67;1.10;;;;;;;37.29;18.60;100550.06;4980837;28;20279;-60
2022/07/05 09:30:54;;;;;;;5.43;1.17;;;;;;;36.73;18.09;100548.28;4978885;28;20911;-59
2022/07/05 09:33:19;;;;;;;2.78;1.40;;;;;;;36.90;18.66;100542.88;4989437;28;20258;-60
2022/07/05 09:35:57;;;;;;;2.97;1.00;;;;;;;36.32;18.25;100550.34;4974864;28;20583;-59
2022/07/05 09:38:24;;;;;;;2.47;0.93;;;;;;;37.36;17.42;100547.19;4993040;28;20193;-64
2022/07/05 09:40:50;;;;;;;2.70;1.27;;;;;;;36.91;17.66;100543.72;4984003;28;20230;-60
2022/07/05 09:43:20;;;;;;;3.03;1.35;;;;;;;38.14;16.71;100549.53;4991307;28;20187;-62
2022/07/05 09:46:02;;;;;;;1.42;0.90;;;;;;;37.52;16.92;100553.53;4992462;28;20673;-61
2022/07/05 09:48:29;;;;;;;2.95;1.20;;;;;;;37.20;16.22;100548.88;4992899;28;20203;-61
2022/07/05 09:51:06;;;;;;;2.85;0.80;;;;;;;37.67;15.80;100553.66;4989336;28;20248;-64
2022/07/05 09:53:47;;;;;;;3.72;1.13;;;;;;;37.93;15.58;100551.25;4999727;28;20191;-61
2022/07/05 09:56:13;;;;;;;5.88;1.52;;;;;;;37.99;15.84;100558.28;4992376;28;20661;-61
2022/07/05 09:58:39;;;;;;;3.75;1.10;;;;;;;36.15;16.87;100545.00;4990704;28;20191;-60
2022/07/05 10:01:26;;;;;;;4.18;1.33;;;;;;;35.86;17.50;100548.53;4990591;28;20237;-60
2022/07/05 10:03:56;;;;;;;3.20;1.25;;;;;;;35.51;17.54;100548.69;4996900;28;20188;-62
2022/07/05 10:06:26;;;;;;;2.03;1.00;;;;;;;34.98;18.22;100545.22;4994751;28;20254;-61
2022/07/05 10:08:55;;;;;;;5.07;1.10;;;;;;;34.50;18.55;100552.47;4991977;28;20202;-60
2022/07/05 10:11:21;;;;;;;1.67;1.33;;;;;;;35.33;18.01;100555.03;4990082;28;20226;-61
2022/07/05 10:13:49;;;;;;;1.45;1.10;;;;;;;36.91;16.86;100554.44;4977408;28;20188;-61
2022/07/05 10:16:19;;;;;;;1.83;0.93;;;;;;;37.53;16.17;100555.16;4990788;28;20184;-62
2022/07/05 10:18:46;;;;;;;2.67;1.15;;;;;;;36.81;16.17;100550.53;4991695;28;20203;-61
2022/07/05 10:21:15;;;;;;;1.83;1.20;;;;;;;36.91;16.46;100549.06;4990911;28;20230;-60
2022/07/05 10:23:44;;;;;;;3.00;1.13;;;;;;;36.56;16.28;100550.19;4997861;28;20192;-60
2022/07/05 10:26:14;;;;;;;4.88;1.30;;;;;;;35.69;16.57;100535.13;4991804;28;20240;-60
2022/07/05 10:28:41;;;;;;;6.45;1.58;;;;;;;35.43;17.58;100533.84;4990264;28;20211;-61
2022/07/05 10:31:08;;;;;;;2.92;1.13;;;;;;;36.15;17.11;100540.44;4977926;28;20235;-62
2022/07/05 10:33:34;;;;;;;3.28;1.02;;;;;;;37.27;16.90;100544.13;4994025;28;20183;-61
2022/07/05 10:36:01;;;;;;;2.65;1.15;;;;;;;37.28;16.20;100549.22;5000110;28;20196;-62
2022/07/05 10:38:27;;;;;;;2.17;1.20;;;;;;;37.61;15.50;100547.47;4991954;28;20187;-61
2022/07/05 10:40:55;;;;;;;4.38;1.40;;;;;;;37.10;15.93;100541.50;4987600;28;20345;-61
2022/07/05 10:43:22;;;;;;;2.63;1.20;;;;;;;38.38;15.48;100541.94;4990305;28;20555;-60
2022/07/05 10:45:49;;;;;;;5.45;1.25;;;;;;;37.94;15.34;100539.44;4989541;28;20699;-60
2022/07/05 10:48:33;;;;;;;3.22;1.38;;;;;;;34.61;19.20;100548.16;4989815;28;20301;-61
2022/07/05 10:51:12;;;;;;;2.47;1.02;;;;;;;33.75;20.92;100538.56;4985160;28;20237;-61
2022/07/05 10:53:37;;;;;;;3.00;1.00;;;;;;;32.18;21.20;100523.59;4986641;28;20228;-61
2022/07/05 10:56:03;;;;;;;1.83;1.10;;;;;;;30.94;23.28;100531.75;4985682;28;20258;-60
2022/07/05 10:58:30;;;;;;;2.35;1.20;;;;;;;30.40;23.44;100523.84;4999573;28;20423;-60
2022/07/05 11:01:20;;;;;;;2.03;1.10;;;;;;;30.53;24.76;100523.03;4966118;28;20238;-61
2022/07/05 11:03:48;;;;;;;2.55;1.20;;;;;;;30.44;23.95;100529.56;4974168;28;20207;-61
2022/07/05 11:06:29;;;;;;;4.72;1.45;;;;;;;29.98;23.93;100517.91;4975630;28;20217;-61
2022/07/05 11:09:02;;;;;;;3.40;1.30;;;;;;;29.86;26.05;100514.97;4979678;28;20187;-60
2022/07/05 11:11:42;;;;;;;3.85;1.00;;;;;;;29.51;22.82;100517.75;4978384;28;20223;-59
2022/07/05 11:14:22;;;;;;;3.20;1.00;;;;;;;29.22;23.55;100521.47;4974631;28;20187;-59
2022/07/05 11:17:11;;;;;;;1.05;0.95;;;;;;;28.11;25.30;100507.06;4976079;28;20314;-61
2022/07/05 11:19:58;;;;;;;2.97;1.27;;;;;;;28.06;25.05;100502.31;4976007;28;20274;-62
2022/07/05 11:22:24;;;;;;;3.72;1.10;;;;;;;28.03;25.94;100498.19;4993933;28;20238;-57
2022/07/05 11:24:50;;;;;;;2.55;1.38;;;;;;;28.21;27.55;100496.97;4984936;28;20223;-58
2022/07/05 11:27:15;;;;;;;1.77;1.15;;;;;;;28.13;25.97;100491.78;4993484;28;20200;-58